AirNav   Duncan Aviation - Near you to keep you flying
 
 1797 users online  

T00 Chambers County Airport
Anahuac, Texas, USA

GOING TO ANAHUAC?


FAA INFORMATION EFFECTIVE 11 AUGUST 2022

Location

FAA Identifier: T00
Lat/Long: 29-46-11.3332N 094-39-48.5535W
29-46.188887N 094-39.809225W
29.7698148,-94.6634871
(estimated)
Elevation: 21.2 ft. / 6.5 m (surveyed)
Variation: 05E (1995)
From city: 1 mile E of ANAHUAC, TX
Time zone: UTC -5 (UTC -6 during Standard Time)
Zip code: 77514

Airport Operations

Airport use: Open to the public
Activation date: 10/1978
Control tower: no
ARTCC: HOUSTON CENTER
FSS: MONTGOMERY COUNTY FLIGHT SERVICE STATION
NOTAMs facility: CXO (NOTAM-D service available)
Attendance: MON-FRI 0800-1700
Wind indicator: lighted
Segmented circle: yes
Lights: DUSK-DAWN. MIRL RWY 12/30 PRESET LOW INTST; TO INCR INTST ACTVT - CTAF.
Beacon: white-green (lighted land airport)
Operates sunset to sunrise.

Airport Communications

CTAF: 122.9
HOUSTON APPROACH: 134.45 [0600-0000]
HOUSTON DEPARTURE: 134.45 [0600-0000]
BLTWY RNAV DP: 134.45
BLUEBELL STAR: 124.225
BORRN RNAV DP: 134.45
CESAN STAR: 121.3
DREMR DP: 134.45
HOODO RNAV DP: 134.45
HUDZY STAR: 120.05
INDIE RNAV DP: 134.45
KARRR RNAV DP: 134.45
LURIC DP: 134.45
MMALT RNAV DP: 134.45
OHIIO STAR: 120.05
PALACIOS DP: 134.45
STRYA DP: 134.45
STYCK DP: 134.45
TKNIQ STAR: 119.625
WAPPL STAR: 120.05
WATFO DP: 134.45
WYLSN RNAV DP: 134.45
WX AWOS-3PT at T78 (19 nm N): 120.775 (936-587-4150)

Nearby radio navigation aids

VOR radial/distance  VOR name  Freq  Var
MHFr011/14.1TRINITY VOR/DME113.6007E
DASr177/25.2DAISETTA VORTAC116.9005E
VUHr014/31.9SCHOLES VOR/DME113.0006E
SBIr272/33.0SABINE PASS VOR/DME115.4007E
BPTr246/35.3BEAUMONT VOR/DME114.5007E
IAHr103/37.2HUMBLE VORTAC116.6005E

 
NDB name  Hdg/Dist  Freq  Var  ID
GOODHUE226/29.636807EGDE --. -.. .

Airport Services

Fuel available: 100LL JET-A JET-A1+
100LL:FUEL 24 HR SELF-SERVE.
Parking: tiedowns
Bottled oxygen: NONE
Bulk oxygen: NONE

Runway Information

Runway 12/30

Dimensions: 3005 x 60 ft. / 916 x 18 m
Surface: asphalt, in poor condition
EXTSV CRACKING.
Weight bearing capacity: 
Single wheel: 13.0
Runway edge lights: medium intensity
RUNWAY 12  RUNWAY 30
Latitude: 29-46.363987N29-46.053815N
Longitude: 094-39.966058W094-39.522763W
Elevation: 20.4 ft.20.4 ft.
Traffic pattern: leftright
Runway heading: 124 magnetic, 129 true304 magnetic, 309 true
Markings: nonprecision, in good conditionnonprecision, in good condition
Visual slope indicator: 2-light PAPI on left (4.00 degrees glide path)
Touchdown point: yes, no lightsyes, no lights
Obstructions: 45 ft. pole, 882 ft. from runway, 160 ft. left of centerline, 15:1 slope to clear15 ft. road, 530 ft. from runway, 280 ft. left of centerline, 22:1 slope to clear

Runway 17/35

Dimensions: 1900 x 300 ft. / 579 x 91 m
Surface: turf, in good condition
RUNWAY 17  RUNWAY 35
Latitude: 29-46.313965N29-46.000500N
Longitude: 094-39.911733W094-39.911733W
Elevation: 20.0 ft.20.0 ft.
Traffic pattern: leftright
Runway heading: 175 magnetic, 180 true355 magnetic, 000 true
Markings: none, in good conditionnone, in good condition
Touchdown point: yes, no lightsyes, no lights
Obstructions: 60 ft. trees, 890 ft. from runway, 90 ft. left of centerline, 14:1 slope to clear17 ft. road, 230 ft. from runway, 13:1 slope to clear

Airport Ownership and Management from official FAA records

Ownership: Publicly-owned
Owner: CHAMBERS COUNTY
PO BOX 938
ANAHUAC, TX 77514
Phone 409-267-2400
Manager: RONNIE BROWN
PO BOX 938
ANAHUAC, TX 77514
Phone 409-267-2719

Airport Operational Statistics

Aircraft based on the field: 9
Single engine airplanes: 8
Multi engine airplanes: 1
    
Aircraft operations: avg 46/week *
67% local general aviation
33% transient general aviation
* for 12-month period ending 23 April 2020

Additional Remarks

RWY 17/35 SOFT WHEN WET.
RWY 17, PAPI RWY 12 IN RWY 17 APCH, DO NOT LAND BFR XNG RWY 12.
FOR CD CTC HOUSTON APCH AT 281-443-5844 TO CNL IFR CALL 281-443-5888.

Instrument Procedures

NOTE: All procedures below are presented as PDF files. If you need a reader for these files, you should download the free Adobe Reader.

NOT FOR NAVIGATION. Please procure official charts for flight.
FAA instrument procedures published for use from 11 August 2022 at 0901Z to 08 September 2022 at 0900z.

 
STARs - Standard Terminal Arrivals
BLUBELL FOUR   download (300KB)
CESAN FOUR (RNAV)   2 pages: [1] [2] (399KB)
HUDZY FOUR   2 pages: [1] [2] (330KB)
OHIIO FOUR   download (287KB)
TKNIQ THREE (RNAV)   2 pages: [1] [2] (329KB)
TSHRT ONE ARRIVAL   2 pages: [1] [2] (376KB)
WAPPL SIX (RNAV)   2 pages: [1] [2] (376KB)
WAPPL SIX (RNAV), CONT.2   download (282KB)
 
IAPs - Instrument Approach Procedures
RNAV (GPS) RWY 12   download (197KB)
 
Departure Procedures
BLTWY SEVEN (RNAV)   download (154KB)
BORRN FOUR (RNAV)   2 pages: [1] [2] (295KB)
HOODO SEVEN (RNAV)   download (195KB)
INDIE EIGHT (RNAV)   download (181KB)
KARRR SIX (RNAV)   2 pages: [1] [2] (252KB)
LURIC EIGHT (RNAV)   download (202KB)
MMALT FIVE (RNAV)   download (206KB)
PALACIOS TWO   2 pages: [1] [2] (305KB)
STRYA EIGHT (RNAV)   download (191KB)
STYCK EIGHT (RNAV)   download (179KB)
WATFO FIVE (RNAV)   download (159KB)
WYLSN EIGHT (RNAV)   download (164KB)
NOTE: Special Take-Off Minimums/Departure Procedures apply   download (70KB)

Other nearby airports with instrument procedures:

54T - RWJ Airpark (10 nm W)
KHPY - Baytown Airport (15 nm W)
T78 - Liberty Municipal Airport (19 nm N)
T41 - La Porte Municipal Airport (22 nm W)
KEFD - Ellington Airport (28 nm W)
 
Loc | Ops | Rwys | IFR | FBO | Links
Com | Nav | Svcs | Stats | Notes
Area around T00 (Chambers County Airport)
 
Road maps at: MapQuest Bing Google
 
Aerial photo
WARNING: Photo may not be current or correct
Aerial photo of T00 (Chambers County Airport)
Photo taken 04-Mar-2007
on final for runway 30

Do you have a better or more recent aerial photo of Chambers County Airport that you would like to share? If so, please send us your photo.

 
Sectional chart

 
Airport distance calculator
Flying to Chambers County Airport? Find the distance to fly.

From to T00

Sunrise and sunset
Times for 11-Aug-2022
 Local
(UTC-5)
 Zulu
(UTC)
Morning civil twilight06:2011:20
Sunrise06:4511:45
Sunset20:0301:03
Evening civil twilight20:2801:28

Current date and time
Zulu (UTC)  11-Aug-2022 19:01:36
Local (UTC-5)  11-Aug-2022 14:01:36
 
METAR
KT41 
22nm W 
111855Z AUTO 36006KT 10SM SCT033 SCT120 A3000 RMK AO2
KEFD 
28nm W 
111754Z 02007KT 10SM SCT030 32/22 A3000
KBMT 
29nm NE 
111855Z AUTO 28008KT 10SM SCT035 SCT050 BKN065 31/24 A3000 RMK AO2 T03060236
KGLS 
32nm S 
111852Z 01010KT 10SM CLR 33/23 A3000 RMK AO2 SLP159 T03330233
KHOU 
33nm W 
111853Z 03005KT 10SM FEW045 SCT140 BKN250 34/21 A2998 RMK AO2 SLP157 T03390206
KLVJ 
34nm SW 
111853Z AUTO 03010G14KT 10SM FEW044 33/22 A3000 RMK AO2 SLP158 T03330217
KBPT 
35nm E 
111853Z 05006KT 10SM BKN026 32/24 A2998 RMK AO2 LTG DSNT S SLP153 T03170239
KIAH 
39nm W 
111853Z 00000KT 10SM SCT039TCU BKN250 33/23 A2998 RMK AO2 SLP152 TCU N AND NW T03330233
K6R3 
39nm NW 
111855Z AUTO 00000KT 10SM BKN045 34/19 A2999 RMK AO2 T03440192
TAF
KEFD 
28nm W 
111200Z 1112/1218 VRB06KT 8000 -SHRA SCT012 QNH3000INS TEMPO 1112/1122 VRB10G20KT 8000 -TSRA SCT030CB BKN050 OVC065 BECMG 1122/1123 VRB06KT 9999 NSW SCT040 QNH2992INS BECMG 1123/1124 VRB06KT 9000 -SHRA FEW030 QNH2991INS TEMPO 1201/1203 VRB10G15KT 9000 -TSRA FEW026CB BKN040 OVC055 BECMG 1204/1205 VRB06KT 8000 BR SCT018 QNH2994INS BECMG 1210/1211 VRB06KT 4800 -SHRA FEW011 QNH2995INS TEMPO 1212/1218 VRB10G15KT 4800 -TSRA BKN018CB OVC026 TX30/1122Z TN24/1212Z
KGLS 
32nm S 
111728Z 1118/1218 02009KT P6SM VCSH SCT016 FM112000 08007KT P6SM VCTS SCT030CB BKN200 FM120000 16008KT P6SM SCT040 SCT250 FM120900 VRB04KT P6SM VCSH SCT020 SCT250 FM121600 04007KT P6SM VCTS SCT040CB BKN100
KHOU 
33nm W 
111728Z 1118/1218 VRB06KT P6SM FEW030 BKN250 FM111900 05007KT P6SM VCSH SCT040 SCT200 FM112200 13007KT P6SM VCTS SCT040CB BKN250 FM120100 VRB04KT P6SM SCT035 SCT250 FM121100 VRB02KT P6SM VCSH SCT015 SCT250
KBPT 
35nm E 
111728Z 1118/1218 04007KT P6SM VCSH SCT020 BKN200 FM112100 10008KT P6SM VCTS SCT035CB BKN120 TEMPO 1121/1124 VRB15G25KT 2SM TSRA BKN035CB FM120300 VRB05KT P6SM FEW030 BKN200 FM121200 05007KT P6SM VCSH BKN015
NOTAMs
Click for the latest NOTAMs
NOTAMs are issued by the DoD/FAA and will open in a separate window not controlled by AirNav.

 

 
 

FBO, Fuel Providers, and Aircraft Ground Support

  
 Business Name 
 
 Contact 
 
 Services / Description 
 
Fuel Prices
 
Comments
  
Chambers County Anahuac Airport 409-267-2719
no information available

If you are affiliated with Chambers County Anahuac Airport and would like to show here your services, contact info, web link, logo, and more, click here
100LL Jet A
SS $6.11 $5.05 
 Updated 18-Jul-2022
 
   write
SS=Self service
Update Fuel Prices
 

Would you like to see your business listed on this page?

 If your business provides an interesting product or service to pilots, flight crews, aircraft, or users of the Chambers County Airport, you should consider listing it here.  To start the listing process, click on the button below
 
Add a business
 

Other Pages about Chambers County Airport

www.co.chambers.tx.us/...
 
Update a link
 
Copyright © AirNav, LLC. All rights reserved. Privacy Policy  Contact